Seibert, Colorado
Current Conditions -  °F | °C
As of 6:53 AM on Friday 24 Oct 2014 (Local Time) from KITR Reporting Station
Clear Clear  
Wind Chill: 42°   Ceiling: Unl
Heat Index: 47°   Visibility: 10mi
Dew Point: 38°   Wind: 10mph
Humidity: 71%   Direction: 260°W
Pressure: 30.09"   Gusts: NA
Location:  39.3°N, 102.87°W
Report Text: KITR 241253Z AUTO 26009KT 10SM CLR 08/03 A3009 RMK AO2 SLP167 T00830033
Loading
Personal Weather Stations






























Interactive Weather Map
Tropical Storm Tracking
New forecast layout! Learn more

10-Day Weather Forecast

Advertisements
Track Severe Weather on mobile